sensor_id;sensor_type;location;lat;lon;timestamp;pressure;altitude;pressure_sealevel;temperature;humidity
65157;BME280;52745;49.794;18.258;2023-05-22T00:00:38;-16307.69;;;13.89;89.97
65157;BME280;52745;49.794;18.258;2023-05-22T00:03:20;-16307.44;;;13.88;90.02
65157;BME280;52745;49.794;18.258;2023-05-22T00:05:49;-16306.47;;;13.84;90.07
65157;BME280;52745;49.794;18.258;2023-05-22T00:08:18;-16305.94;;;13.82;90.16
65157;BME280;52745;49.794;18.258;2023-05-22T00:10:45;-16305.13;;;13.79;90.05
65157;BME280;52745;49.794;18.258;2023-05-22T00:13:11;-16304.44;;;13.77;90.21
65157;BME280;52745;49.794;18.258;2023-05-22T00:15:38;-16303.75;;;13.74;90.12
65157;BME280;52745;49.794;18.258;2023-05-22T00:18:04;-16302.81;;;13.71;90.43
65157;BME280;52745;49.794;18.258;2023-05-22T00:20:31;-16301.72;;;13.66;91.03
65157;BME280;52745;49.794;18.258;2023-05-22T00:23:03;-16300.34;;;13.61;91.65
65157;BME280;52745;49.794;18.258;2023-05-22T00:25:30;-16299.25;;;13.57;91.73
65157;BME280;52745;49.794;18.258;2023-05-22T00:27:57;-16298.19;;;13.53;92.18
65157;BME280;52745;49.794;18.258;2023-05-22T00:30:25;-16296.94;;;13.49;92.86
65157;BME280;52745;49.794;18.258;2023-05-22T00:32:51;-16295.72;;;13.44;93.26
65157;BME280;52745;49.794;18.258;2023-05-22T00:35:18;-16294.09;;;13.38;94.05
65157;BME280;52745;49.794;18.258;2023-05-22T00:37:45;-16293.28;;;13.35;93.93
65157;BME280;52745;49.794;18.258;2023-05-22T00:40:12;-16291.91;;;13.30;94.04
65157;BME280;52745;49.794;18.258;2023-05-22T00:42:44;-16291.09;;;13.27;94.66
65157;BME280;52745;49.794;18.258;2023-05-22T00:45:12;-16290.69;;;13.25;94.38
65157;BME280;52745;49.794;18.258;2023-05-22T00:47:40;-16290.41;;;13.24;94.06
65157;BME280;52745;49.794;18.258;2023-05-22T00:50:09;-16290.13;;;13.23;93.72
65157;BME280;52745;49.794;18.258;2023-05-22T00:52:37;-16289.31;;;13.20;94.47
65157;BME280;52745;49.794;18.258;2023-05-22T00:55:06;-16288.66;;;13.17;94.80
65157;BME280;52745;49.794;18.258;2023-05-22T00:57:35;-16287.69;;;13.14;94.23
65157;BME280;52745;49.794;18.258;2023-05-22T01:00:04;-16287.69;;;13.14;94.29
65157;BME280;52745;49.794;18.258;2023-05-22T01:02:32;-16286.59;;;13.10;94.50
65157;BME280;52745;49.794;18.258;2023-05-22T01:04:58;-16286.06;;;13.08;94.55
65157;BME280;52745;49.794;18.258;2023-05-22T01:07:25;-16285.25;;;13.04;95.14
65157;BME280;52745;49.794;18.258;2023-05-22T01:09:53;-16283.59;;;12.98;95.50
65157;BME280;52745;49.794;18.258;2023-05-22T01:12:41;-16282.38;;;12.94;95.43
65157;BME280;52745;49.794;18.258;2023-05-22T01:18:21;-16279.94;;;12.84;96.81
65157;BME280;52745;49.794;18.258;2023-05-22T01:32:24;-16275.72;;;12.69;97.63
65157;BME280;52745;49.794;18.258;2023-05-22T01:34:54;-16274.63;;;12.65;98.22
65157;BME280;52745;49.794;18.258;2023-05-22T01:37:22;-16273.81;;;12.61;98.86
65157;BME280;52745;49.794;18.258;2023-05-22T01:39:52;-16273.00;;;12.58;98.58
65157;BME280;52745;49.794;18.258;2023-05-22T01:42:20;-16272.03;;;12.55;98.04
65157;BME280;52745;49.794;18.258;2023-05-22T01:44:47;-16270.94;;;12.51;98.15
65157;BME280;52745;49.794;18.258;2023-05-22T01:47:15;-16270.81;;;12.50;98.26
65157;BME280;52745;49.794;18.258;2023-05-22T01:49:43;-16269.72;;;12.46;98.68
65157;BME280;52745;49.794;18.258;2023-05-22T01:54:55;-16268.63;;;12.42;98.61
65157;BME280;52745;49.794;18.258;2023-05-22T01:57:27;-16268.09;;;12.40;98.65
65157;BME280;52745;49.794;18.258;2023-05-22T02:00:08;-16268.09;;;12.40;98.52
65157;BME280;52745;49.794;18.258;2023-05-22T02:02:48;-16267.00;;;12.36;98.99
65157;BME280;52745;49.794;18.258;2023-05-22T02:05:18;-16266.31;;;12.33;99.64
65157;BME280;52745;49.794;18.258;2023-05-22T02:07:48;-16265.78;;;12.31;99.92
65157;BME280;52745;49.794;18.258;2023-05-22T02:10:17;-16264.81;;;12.28;100.00
65157;BME280;52745;49.794;18.258;2023-05-22T02:12:46;-16263.03;;;12.21;100.00
65157;BME280;52745;49.794;18.258;2023-05-22T02:15:13;-16262.63;;;12.19;100.00
65157;BME280;52745;49.794;18.258;2023-05-22T02:17:40;-16260.31;;;12.11;100.00
65157;BME280;52745;49.794;18.258;2023-05-22T02:20:13;-16260.19;;;12.10;100.00
65157;BME280;52745;49.794;18.258;2023-05-22T02:22:45;-16258.97;;;12.06;100.00
65157;BME280;52745;49.794;18.258;2023-05-22T02:25:12;-16258.41;;;12.04;100.00
65157;BME280;52745;49.794;18.258;2023-05-22T02:27:42;-16257.19;;;11.99;100.00
65157;BME280;52745;49.794;18.258;2023-05-22T02:30:10;-16256.22;;;11.95;100.00
65157;BME280;52745;49.794;18.258;2023-05-22T02:32:39;-16256.09;;;11.95;100.00
65157;BME280;52745;49.794;18.258;2023-05-22T02:35:06;-16255.28;;;11.92;100.00
65157;BME280;52745;49.794;18.258;2023-05-22T02:37:33;-16254.75;;;11.90;100.00
65157;BME280;52745;49.794;18.258;2023-05-22T02:40:00;-16254.47;;;11.89;100.00
65157;BME280;52745;49.794;18.258;2023-05-22T02:42:29;-16253.38;;;11.85;100.00
65157;BME280;52745;49.794;18.258;2023-05-22T02:44:55;-16252.69;;;11.82;100.00
65157;BME280;52745;49.794;18.258;2023-05-22T02:47:22;-16252.28;;;11.80;100.00
65157;BME280;52745;49.794;18.258;2023-05-22T02:49:49;-16252.00;;;11.79;100.00
65157;BME280;52745;49.794;18.258;2023-05-22T02:52:16;-16251.31;;;11.77;100.00
65157;BME280;52745;49.794;18.258;2023-05-22T02:54:42;-16250.66;;;11.74;100.00
65157;BME280;52745;49.794;18.258;2023-05-22T02:57:09;-16250.38;;;11.73;100.00
65157;BME280;52745;49.794;18.258;2023-05-22T02:59:36;-16250.09;;;11.72;100.00
65157;BME280;52745;49.794;18.258;2023-05-22T03:02:04;-16250.38;;;11.73;100.00
65157;BME280;52745;49.794;18.258;2023-05-22T03:04:31;-16250.09;;;11.72;100.00
65157;BME280;52745;49.794;18.258;2023-05-22T03:06:58;-16250.09;;;11.72;100.00
65157;BME280;52745;49.794;18.258;2023-05-22T03:09:27;-16250.09;;;11.72;100.00
65157;BME280;52745;49.794;18.258;2023-05-22T03:11:54;-16249.97;;;11.72;100.00
65157;BME280;52745;49.794;18.258;2023-05-22T03:14:20;-16250.09;;;11.72;100.00
65157;BME280;52745;49.794;18.258;2023-05-22T03:16:47;-16250.09;;;11.72;100.00
65157;BME280;52745;49.794;18.258;2023-05-22T03:19:14;-16250.50;;;11.74;100.00
65157;BME280;52745;49.794;18.258;2023-05-22T03:21:42;-16251.47;;;11.77;100.00
65157;BME280;52745;49.794;18.258;2023-05-22T03:24:09;-16252.00;;;11.79;100.00
65157;BME280;52745;49.794;18.258;2023-05-22T03:26:38;-16251.72;;;11.78;100.00
65157;BME280;52745;49.794;18.258;2023-05-22T03:29:08;-16252.28;;;11.80;100.00
65157;BME280;52745;49.794;18.258;2023-05-22T03:31:36;-16252.00;;;11.79;100.00
65157;BME280;52745;49.794;18.258;2023-05-22T03:34:12;-16252.41;;;11.81;100.00
65157;BME280;52745;49.794;18.258;2023-05-22T03:36:40;-16252.41;;;11.81;100.00
65157;BME280;52745;49.794;18.258;2023-05-22T03:39:07;-16252.56;;;11.81;100.00
65157;BME280;52745;49.794;18.258;2023-05-22T03:41:39;-16252.56;;;11.81;100.00
65157;BME280;52745;49.794;18.258;2023-05-22T03:44:08;-16252.97;;;11.83;100.00
65157;BME280;52745;49.794;18.258;2023-05-22T03:46:35;-16252.97;;;11.83;100.00
65157;BME280;52745;49.794;18.258;2023-05-22T03:49:02;-16253.63;;;11.86;100.00
65157;BME280;52745;49.794;18.258;2023-05-22T03:51:29;-16253.91;;;11.87;100.00
65157;BME280;52745;49.794;18.258;2023-05-22T03:53:56;-16254.47;;;11.89;100.00
65157;BME280;52745;49.794;18.258;2023-05-22T03:56:23;-16254.88;;;11.90;100.00
65157;BME280;52745;49.794;18.258;2023-05-22T03:58:50;-16254.88;;;11.90;100.00
65157;BME280;52745;49.794;18.258;2023-05-22T04:01:16;-16254.19;;;11.88;100.00
65157;BME280;52745;49.794;18.258;2023-05-22T04:03:43;-16255.81;;;11.94;100.00
65157;BME280;52745;49.794;18.258;2023-05-22T04:06:10;-16258.16;;;12.03;100.00
65157;BME280;52745;49.794;18.258;2023-05-22T04:08:39;-16264.28;;;12.26;100.00
65157;BME280;52745;49.794;18.258;2023-05-22T04:11:06;-16267.13;;;12.36;100.00
65157;BME280;52745;49.794;18.258;2023-05-22T04:13:33;-16265.50;;;12.30;100.00
65157;BME280;52745;49.794;18.258;2023-05-22T04:16:00;-16265.78;;;12.31;100.00
65157;BME280;52745;49.794;18.258;2023-05-22T04:18:27;-16263.84;;;12.24;98.88
65157;BME280;52745;49.794;18.258;2023-05-22T04:20:54;-16263.03;;;12.21;98.86
65157;BME280;52745;49.794;18.258;2023-05-22T04:23:20;-16262.91;;;12.20;98.24
65157;BME280;52745;49.794;18.258;2023-05-22T04:25:48;-16262.09;;;12.17;98.22
65157;BME280;52745;49.794;18.258;2023-05-22T04:28:14;-16262.78;;;12.20;97.81
65157;BME280;52745;49.794;18.258;2023-05-22T04:30:43;-16264.81;;;12.28;98.86
65157;BME280;52745;49.794;18.258;2023-05-22T04:33:09;-16266.59;;;12.34;98.77
65157;BME280;52745;49.794;18.258;2023-05-22T04:35:37;-16269.03;;;12.43;98.61
65157;BME280;52745;49.794;18.258;2023-05-22T04:38:05;-16270.81;;;12.50;98.07
65157;BME280;52745;49.794;18.258;2023-05-22T04:40:32;-16271.09;;;12.51;97.78
65157;BME280;52745;49.794;18.258;2023-05-22T04:42:59;-16273.41;;;12.60;97.91
65157;BME280;52745;49.794;18.258;2023-05-22T04:45:27;-16275.16;;;12.67;96.94
65157;BME280;52745;49.794;18.258;2023-05-22T04:47:58;-16275.16;;;12.67;95.88
65157;BME280;52745;49.794;18.258;2023-05-22T04:50:29;-16275.97;;;12.70;95.77
65157;BME280;52745;49.794;18.258;2023-05-22T04:52:58;-16278.03;;;12.77;95.86
65157;BME280;52745;49.794;18.258;2023-05-22T04:55:25;-16280.88;;;12.88;95.37
65157;BME280;52745;49.794;18.258;2023-05-22T04:57:51;-16282.50;;;12.94;94.66
65157;BME280;52745;49.794;18.258;2023-05-22T05:00:19;-16283.59;;;12.98;94.79
65157;BME280;52745;49.794;18.258;2023-05-22T05:02:51;-16284.16;;;13.00;94.54
65157;BME280;52745;49.794;18.258;2023-05-22T05:05:18;-16286.59;;;13.10;93.33
65157;BME280;52745;49.794;18.258;2023-05-22T05:07:47;-16288.78;;;13.18;92.90
65157;BME280;52745;49.794;18.258;2023-05-22T05:10:15;-16290.81;;;13.25;92.57
65157;BME280;52745;49.794;18.258;2023-05-22T05:12:42;-16292.31;;;13.31;92.34
65157;BME280;52745;49.794;18.258;2023-05-22T05:15:09;-16293.13;;;13.34;92.90
65157;BME280;52745;49.794;18.258;2023-05-22T05:17:36;-16295.31;;;13.42;90.99
65157;BME280;52745;49.794;18.258;2023-05-22T05:20:04;-16297.22;;;13.50;89.87
65157;BME280;52745;49.794;18.258;2023-05-22T05:22:32;-16299.94;;;13.60;89.28
65157;BME280;52745;49.794;18.258;2023-05-22T05:25:00;-16301.56;;;13.66;89.82
65157;BME280;52745;49.794;18.258;2023-05-22T05:27:27;-16304.03;;;13.75;89.16
65157;BME280;52745;49.794;18.258;2023-05-22T05:29:57;-16305.25;;;13.80;88.81
65157;BME280;52745;49.794;18.258;2023-05-22T05:32:31;-16308.09;;;13.91;88.09
65157;BME280;52745;49.794;18.258;2023-05-22T05:35:10;-16311.09;;;14.02;87.50
65157;BME280;52745;49.794;18.258;2023-05-22T05:37:46;-16312.19;;;14.06;87.17
65157;BME280;52745;49.794;18.258;2023-05-22T05:40:13;-16313.56;;;14.11;87.51
65157;BME280;52745;49.794;18.258;2023-05-22T05:42:44;-16316.69;;;14.23;87.45
65157;BME280;52745;49.794;18.258;2023-05-22T05:45:13;-16318.19;;;14.28;87.64
65157;BME280;52745;49.794;18.258;2023-05-22T05:47:40;-16320.34;;;14.37;87.72
65157;BME280;52745;49.794;18.258;2023-05-22T05:50:07;-16322.25;;;14.44;87.76
65157;BME280;52745;49.794;18.258;2023-05-22T05:52:37;-16324.69;;;14.53;87.56
65157;BME280;52745;49.794;18.258;2023-05-22T05:55:09;-16326.88;;;14.61;86.73
65157;BME280;52745;49.794;18.258;2023-05-22T05:57:36;-16329.88;;;14.73;85.05
65157;BME280;52745;49.794;18.258;2023-05-22T06:00:07;-16331.25;;;14.78;84.72
65157;BME280;52745;49.794;18.258;2023-05-22T06:02:42;-16333.81;;;14.87;83.27
65157;BME280;52745;49.794;18.258;2023-05-22T06:05:38;-16337.22;;;15.00;82.49
65157;BME280;52745;49.794;18.258;2023-05-22T06:08:16;-16338.72;;;15.06;82.06
65157;BME280;52745;49.794;18.258;2023-05-22T06:10:46;-16337.75;;;15.02;80.53
65157;BME280;52745;49.794;18.258;2023-05-22T06:13:16;-16334.78;;;14.91;81.81
65157;BME280;52745;49.794;18.258;2023-05-22T06:15:42;-16335.44;;;14.94;81.72
65157;BME280;52745;49.794;18.258;2023-05-22T06:18:09;-16338.56;;;15.05;82.49
65157;BME280;52745;49.794;18.258;2023-05-22T06:20:37;-16340.75;;;15.14;81.43
65157;BME280;52745;49.794;18.258;2023-05-22T06:23:05;-16341.97;;;15.18;81.91
65157;BME280;52745;49.794;18.258;2023-05-22T06:25:32;-16342.94;;;15.22;80.96
65157;BME280;52745;49.794;18.258;2023-05-22T06:27:59;-16343.75;;;15.25;80.40
65157;BME280;52745;49.794;18.258;2023-05-22T06:30:26;-16347.97;;;15.41;79.39
65157;BME280;52745;49.794;18.258;2023-05-22T06:32:53;-16347.81;;;15.40;78.75
65157;BME280;52745;49.794;18.258;2023-05-22T06:35:20;-16351.91;;;15.56;80.00
65157;BME280;52745;49.794;18.258;2023-05-22T06:37:47;-16356.81;;;15.74;80.24
65157;BME280;52745;49.794;18.258;2023-05-22T06:40:14;-16358.84;;;15.82;79.51
65157;BME280;52745;49.794;18.258;2023-05-22T06:42:53;-16364.13;;;16.02;79.27
65157;BME280;52745;49.794;18.258;2023-05-22T06:45:20;-16368.22;;;16.17;77.99
65157;BME280;52745;49.794;18.258;2023-05-22T06:48:13;-16370.94;;;16.27;76.18
65157;BME280;52745;49.794;18.258;2023-05-22T06:50:53;-16372.28;;;16.32;76.36
65157;BME280;52745;49.794;18.258;2023-05-22T06:53:20;-16374.47;;;16.41;74.87
65157;BME280;52745;49.794;18.258;2023-05-22T06:55:47;-16374.72;;;16.42;74.55
65157;BME280;52745;49.794;18.258;2023-05-22T06:58:21;-16376.38;;;16.48;73.87
65157;BME280;52745;49.794;18.258;2023-05-22T07:00:49;-16379.34;;;16.59;73.44
65157;BME280;52745;49.794;18.258;2023-05-22T07:03:21;-16382.06;;;16.69;73.12
65157;BME280;52745;49.794;18.258;2023-05-22T07:06:08;-16383.56;;;16.75;74.29
65157;BME280;52745;49.794;18.258;2023-05-22T07:08:35;-16389.53;;;16.98;75.94
65157;BME280;52745;49.794;18.258;2023-05-22T07:11:02;-16393.88;;;17.14;74.99
65157;BME280;52745;49.794;18.258;2023-05-22T07:13:32;-16391.16;;;17.04;71.13
65157;BME280;52745;49.794;18.258;2023-05-22T07:15:58;-16390.22;;;17.00;71.17
65157;BME280;52745;49.794;18.258;2023-05-22T07:18:25;-16396.47;;;17.24;73.95
65157;BME280;52745;49.794;18.258;2023-05-22T07:20:52;-16402.44;;;17.46;69.65
65157;BME280;52745;49.794;18.258;2023-05-22T07:23:22;-16422.38;;;18.22;68.49
65157;BME280;52745;49.794;18.258;2023-05-22T07:25:49;-16446.94;;;19.14;64.10
65157;BME280;52745;49.794;18.258;2023-05-22T07:28:19;-16472.56;;;20.11;59.35
65157;BME280;52745;49.794;18.258;2023-05-22T07:31:08;-16521.44;;;21.96;56.69
65157;BME280;52745;49.794;18.258;2023-05-22T07:33:34;-16531.72;;;22.35;50.75
65157;BME280;52745;49.794;18.258;2023-05-22T07:36:01;-16560.25;;;23.43;47.95
65157;BME280;52745;49.794;18.258;2023-05-22T07:38:29;-16570.66;;;23.83;46.20
65157;BME280;52745;49.794;18.258;2023-05-22T07:41:00;-16609.16;;;25.29;43.25
65157;BME280;52745;49.794;18.258;2023-05-22T07:43:29;-16628.44;;;26.02;40.41
65157;BME280;52745;49.794;18.258;2023-05-22T07:45:58;-16647.88;;;26.76;39.96
65157;BME280;52745;49.794;18.258;2023-05-22T07:48:29;-16663.75;;;27.36;38.50
65157;BME280;52745;49.794;18.258;2023-05-22T07:50:56;-16685.59;;;28.19;36.02
65157;BME280;52745;49.794;18.258;2023-05-22T07:53:23;-16691.78;;;28.43;37.06
65157;BME280;52745;49.794;18.258;2023-05-22T07:55:53;-16716.41;;;29.37;34.12
65157;BME280;52745;49.794;18.258;2023-05-22T07:58:19;-16699.44;;;28.72;32.42
65157;BME280;52745;49.794;18.258;2023-05-22T08:00:47;-16720.31;;;29.52;32.71
65157;BME280;52745;49.794;18.258;2023-05-22T08:03:14;-16728.63;;;29.83;32.72
65157;BME280;52745;49.794;18.258;2023-05-22T08:05:40;-16735.50;;;30.09;31.44
65157;BME280;52745;49.794;18.258;2023-05-22T08:08:07;-16738.31;;;30.20;31.04
65157;BME280;52745;49.794;18.258;2023-05-22T08:10:35;-16757.94;;;30.95;29.21
65157;BME280;52745;49.794;18.258;2023-05-22T08:13:02;-16743.56;;;30.40;31.07
65157;BME280;52745;49.794;18.258;2023-05-22T08:15:32;-16769.47;;;31.39;28.96
65157;BME280;52745;49.794;18.258;2023-05-22T08:18:00;-16753.91;;;30.80;28.91
65157;BME280;52745;49.794;18.258;2023-05-22T08:20:27;-16749.06;;;30.61;28.30
65157;BME280;52745;49.794;18.258;2023-05-22T08:22:53;-16763.44;;;31.16;28.08
65157;BME280;52745;49.794;18.258;2023-05-22T08:25:20;-16778.88;;;31.75;26.24
65157;BME280;52745;49.794;18.258;2023-05-22T08:27:46;-16778.06;;;31.72;27.01
65157;BME280;52745;49.794;18.258;2023-05-22T08:30:13;-16807.31;;;32.84;26.27
65157;BME280;52745;49.794;18.258;2023-05-22T08:32:40;-16811.72;;;33.01;26.76
65157;BME280;52745;49.794;18.258;2023-05-22T08:35:07;-16815.34;;;33.14;26.35
65157;BME280;52745;49.794;18.258;2023-05-22T08:37:34;-16795.91;;;32.40;26.90
65157;BME280;52745;49.794;18.258;2023-05-22T08:40:01;-16816.69;;;33.19;26.53
65157;BME280;52745;49.794;18.258;2023-05-22T08:42:28;-16820.19;;;33.33;25.87
65157;BME280;52745;49.794;18.258;2023-05-22T08:44:54;-16795.50;;;32.38;26.83
65157;BME280;52745;49.794;18.258;2023-05-22T08:47:25;-16760.88;;;31.06;26.68
65157;BME280;52745;49.794;18.258;2023-05-22T08:49:52;-16794.84;;;32.36;24.51
65157;BME280;52745;49.794;18.258;2023-05-22T08:53:12;-16802.34;;;32.65;24.65
65157;BME280;52745;49.794;18.258;2023-05-22T08:55:14;-16818.56;;;33.27;23.98
65157;BME280;52745;49.794;18.258;2023-05-22T08:57:42;-16836.78;;;33.96;23.40
65157;BME280;52745;49.794;18.258;2023-05-22T09:00:10;-16841.19;;;34.13;24.09
65157;BME280;52745;49.794;18.258;2023-05-22T09:02:37;-16842.41;;;34.18;23.80
65157;BME280;52745;49.794;18.258;2023-05-22T09:05:07;-16849.91;;;34.47;21.45
65157;BME280;52745;49.794;18.258;2023-05-22T09:07:35;-16839.31;;;34.06;21.82
65157;BME280;52745;49.794;18.258;2023-05-22T09:10:03;-16830.09;;;33.71;23.41
65157;BME280;52745;49.794;18.258;2023-05-22T09:12:32;-16836.50;;;33.95;23.55
65157;BME280;52745;49.794;18.258;2023-05-22T09:15:10;-16855.94;;;34.70;22.93
65157;BME280;52745;49.794;18.258;2023-05-22T09:17:39;-16875.59;;;35.45;22.38
65157;BME280;52745;49.794;18.258;2023-05-22T09:20:07;-16863.28;;;34.98;22.99
65157;BME280;52745;49.794;18.258;2023-05-22T09:22:36;-16859.66;;;34.84;22.51
65157;BME280;52745;49.794;18.258;2023-05-22T09:25:04;-16852.56;;;34.57;23.67
65157;BME280;52745;49.794;18.258;2023-05-22T09:27:32;-16849.38;;;34.45;24.24
65157;BME280;52745;49.794;18.258;2023-05-22T09:29:59;-16846.69;;;34.34;23.30
65157;BME280;52745;49.794;18.258;2023-05-22T09:32:29;-16880.53;;;35.64;22.78
65157;BME280;52745;49.794;18.258;2023-05-22T09:35:03;-16865.97;;;35.08;20.76
65157;BME280;52745;49.794;18.258;2023-05-22T09:37:34;-16858.72;;;34.80;21.07
65157;BME280;52745;49.794;18.258;2023-05-22T09:40:06;-16873.44;;;35.37;21.69
65157;BME280;52745;49.794;18.258;2023-05-22T09:42:34;-16879.72;;;35.61;21.34
65157;BME280;52745;49.794;18.258;2023-05-22T09:45:04;-16879.34;;;35.59;22.14
65157;BME280;52745;49.794;18.258;2023-05-22T09:47:33;-16877.88;;;35.54;20.66
65157;BME280;52745;49.794;18.258;2023-05-22T09:50:02;-16867.69;;;35.15;19.67
65157;BME280;52745;49.794;18.258;2023-05-22T09:52:33;-16868.38;;;35.17;20.68
65157;BME280;52745;49.794;18.258;2023-05-22T09:55:03;-16863.16;;;34.97;20.35
65157;BME280;52745;49.794;18.258;2023-05-22T09:57:32;-16836.38;;;33.95;22.56
65157;BME280;52745;49.794;18.258;2023-05-22T10:00:03;-16857.13;;;34.74;21.34
65157;BME280;52745;49.794;18.258;2023-05-22T10:02:41;-16851.09;;;34.51;22.95
65157;BME280;52745;49.794;18.258;2023-05-22T10:05:10;-16862.47;;;34.95;20.66
65157;BME280;52745;49.794;18.258;2023-05-22T10:07:46;-16864.09;;;35.01;21.08
65157;BME280;52745;49.794;18.258;2023-05-22T10:10:22;-16880.41;;;35.63;20.56
65157;BME280;52745;49.794;18.258;2023-05-22T10:12:59;-16869.03;;;35.20;21.46
65157;BME280;52745;49.794;18.258;2023-05-22T10:15:26;-16852.03;;;34.55;21.49
65157;BME280;52745;49.794;18.258;2023-05-22T10:17:53;-16818.31;;;33.26;21.50
65157;BME280;52745;49.794;18.258;2023-05-22T10:20:21;-16833.03;;;33.82;23.40
65157;BME280;52745;49.794;18.258;2023-05-22T10:22:47;-16845.63;;;34.30;21.40
65157;BME280;52745;49.794;18.258;2023-05-22T10:25:16;-16843.88;;;34.24;21.85
65157;BME280;52745;49.794;18.258;2023-05-22T10:27:43;-16836.78;;;33.96;22.61
65157;BME280;52745;49.794;18.258;2023-05-22T10:33:25;-16793.50;;;32.31;23.92
65157;BME280;52745;49.794;18.258;2023-05-22T10:36:05;-16790.41;;;32.19;24.26
65157;BME280;52745;49.794;18.258;2023-05-22T10:41:24;-16807.84;;;32.86;22.04
65157;BME280;52745;49.794;18.258;2023-05-22T10:43:55;-16815.88;;;33.16;24.70
65157;BME280;52745;49.794;18.258;2023-05-22T10:46:22;-16802.88;;;32.67;23.70
65157;BME280;52745;49.794;18.258;2023-05-22T10:48:51;-16813.47;;;33.07;24.36
65157;BME280;52745;49.794;18.258;2023-05-22T10:51:20;-16821.09;;;33.36;25.11
65157;BME280;52745;49.794;18.258;2023-05-22T10:53:51;-16842.41;;;34.18;22.84
65157;BME280;52745;49.794;18.258;2023-05-22T10:56:18;-16842.13;;;34.17;23.27
65157;BME280;52745;49.794;18.258;2023-05-22T10:58:55;-16834.91;;;33.89;21.31
65157;BME280;52745;49.794;18.258;2023-05-22T11:01:24;-16831.56;;;33.76;21.24
65157;BME280;52745;49.794;18.258;2023-05-22T11:06:44;-16845.50;;;34.30;21.27
65157;BME280;52745;49.794;18.258;2023-05-22T11:09:19;-16772.56;;;31.51;24.18
65157;BME280;52745;49.794;18.258;2023-05-22T11:11:47;-16785.59;;;32.01;25.01
65157;BME280;52745;49.794;18.258;2023-05-22T11:14:35;-16815.88;;;33.16;25.05
65157;BME280;52745;49.794;18.258;2023-05-22T11:17:02;-16823.00;;;33.44;21.67
65157;BME280;52745;49.794;18.258;2023-05-22T11:19:30;-16825.41;;;33.53;21.48
65157;BME280;52745;49.794;18.258;2023-05-22T11:22:02;-16820.44;;;33.34;24.82
65157;BME280;52745;49.794;18.258;2023-05-22T11:24:32;-16804.22;;;32.72;22.82
65157;BME280;52745;49.794;18.258;2023-05-22T11:27:01;-16815.63;;;33.15;22.65
65157;BME280;52745;49.794;18.258;2023-05-22T11:29:29;-16793.63;;;32.31;24.30
65157;BME280;52745;49.794;18.258;2023-05-22T11:31:58;-16772.97;;;31.52;24.26
65157;BME280;52745;49.794;18.258;2023-05-22T11:34:25;-16758.59;;;30.98;24.11
65157;BME280;52745;49.794;18.258;2023-05-22T11:36:57;-16776.59;;;31.66;26.04
65157;BME280;52745;49.794;18.258;2023-05-22T11:39:25;-16777.13;;;31.68;25.36
65157;BME280;52745;49.794;18.258;2023-05-22T11:41:52;-16771.34;;;31.46;26.50
65157;BME280;52745;49.794;18.258;2023-05-22T11:44:18;-16776.59;;;31.66;23.94
65157;BME280;52745;49.794;18.258;2023-05-22T11:46:45;-16770.28;;;31.42;24.86
65157;BME280;52745;49.794;18.258;2023-05-22T11:49:12;-16769.19;;;31.38;22.83
65157;BME280;52745;49.794;18.258;2023-05-22T11:51:39;-16768.13;;;31.34;24.51
65157;BME280;52745;49.794;18.258;2023-05-22T11:54:06;-16765.72;;;31.25;23.17
65157;BME280;52745;49.794;18.258;2023-05-22T11:56:33;-16769.19;;;31.38;25.62
65157;BME280;52745;49.794;18.258;2023-05-22T11:58:59;-16777.78;;;31.71;23.40
65157;BME280;52745;49.794;18.258;2023-05-22T12:01:26;-16774.16;;;31.57;24.44
65157;BME280;52745;49.794;18.258;2023-05-22T12:03:53;-16766.91;;;31.29;24.22
65157;BME280;52745;49.794;18.258;2023-05-22T12:06:20;-16749.06;;;30.61;25.20
65157;BME280;52745;49.794;18.258;2023-05-22T12:08:47;-16721.38;;;29.56;26.32
65157;BME280;52745;49.794;18.258;2023-05-22T12:11:13;-16720.69;;;29.53;27.98
65157;BME280;52745;49.794;18.258;2023-05-22T12:13:40;-16719.09;;;29.47;27.27
65157;BME280;52745;49.794;18.258;2023-05-22T12:16:17;-16719.50;;;29.48;26.90
65157;BME280;52745;49.794;18.258;2023-05-22T12:18:44;-16707.38;;;29.02;28.41
65157;BME280;52745;49.794;18.258;2023-05-22T12:21:11;-16697.69;;;28.65;26.27
65157;BME280;52745;49.794;18.258;2023-05-22T12:23:47;-16679.94;;;27.98;30.58
65157;BME280;52745;49.794;18.258;2023-05-22T12:26:18;-16686.66;;;28.23;29.67
65157;BME280;52745;49.794;18.258;2023-05-22T12:28:44;-16688.53;;;28.31;28.55
65157;BME280;52745;49.794;18.258;2023-05-22T12:31:22;-16687.59;;;28.27;27.71
65157;BME280;52745;49.794;18.258;2023-05-22T12:33:56;-16687.06;;;28.25;28.99
65157;BME280;52745;49.794;18.258;2023-05-22T12:39:00;-16682.63;;;28.08;29.63
65157;BME280;52745;49.794;18.258;2023-05-22T12:41:27;-16684.50;;;28.15;30.56
65157;BME280;52745;49.794;18.258;2023-05-22T12:43:53;-16679.78;;;27.97;29.41
65157;BME280;52745;49.794;18.258;2023-05-22T12:46:20;-16681.28;;;28.03;32.42
65157;BME280;52745;49.794;18.258;2023-05-22T12:48:47;-16672.66;;;27.70;30.24
65157;BME280;52745;49.794;18.258;2023-05-22T12:51:14;-16651.91;;;26.91;29.40
65157;BME280;52745;49.794;18.258;2023-05-22T12:53:40;-16654.34;;;27.00;31.67
65157;BME280;52745;49.794;18.258;2023-05-22T12:56:07;-16655.41;;;27.04;30.82
65157;BME280;52745;49.794;18.258;2023-05-22T12:58:34;-16644.63;;;26.63;29.05
65157;BME280;52745;49.794;18.258;2023-05-22T13:01:01;-16645.44;;;26.67;28.02
65157;BME280;52745;49.794;18.258;2023-05-22T13:03:28;-16636.53;;;26.33;30.02
65157;BME280;52745;49.794;18.258;2023-05-22T13:05:55;-16646.38;;;26.70;31.75
65157;BME280;52745;49.794;18.258;2023-05-22T13:08:21;-16652.31;;;26.93;31.27
65157;BME280;52745;49.794;18.258;2023-05-22T13:10:49;-16647.19;;;26.73;30.58
65157;BME280;52745;49.794;18.258;2023-05-22T13:13:16;-16649.06;;;26.80;29.22
65157;BME280;52745;49.794;18.258;2023-05-22T13:15:44;-16644.63;;;26.63;30.68